createdAt,value
2022-10-18T00:02:23.209Z,16.60
2022-10-18T00:04:49.949Z,16.70
2022-10-18T00:07:16.668Z,12.15
2022-10-18T00:09:43.449Z,11.45
2022-10-18T00:12:10.102Z,11.20
2022-10-18T00:14:36.658Z,10.77
2022-10-18T00:17:03.217Z,9.48
2022-10-18T00:19:29.755Z,11.43
2022-10-18T00:21:56.440Z,10.85
2022-10-18T00:24:23.186Z,10.70
2022-10-18T00:26:49.819Z,9.63
2022-10-18T00:29:16.573Z,7.82
2022-10-18T00:31:44.097Z,8.32
2022-10-18T00:34:13.988Z,12.93
2022-10-18T00:36:41.406Z,10.98
2022-10-18T00:39:09.823Z,12.20
2022-10-18T00:41:38.057Z,15.50
2022-10-18T00:44:26.632Z,15.20
2022-10-18T00:46:58.431Z,12.65
2022-10-18T00:49:35.059Z,9.68
2022-10-18T00:52:09.412Z,14.68
2022-10-18T00:54:40.712Z,9.23
2022-10-18T00:57:07.866Z,7.72
2022-10-18T00:59:35.276Z,9.55
2022-10-18T01:02:02.211Z,7.18
2022-10-18T01:04:28.904Z,6.07
2022-10-18T01:22:51.924Z,4.60
2022-10-18T01:25:41.979Z,7.30
2022-10-18T01:28:31.226Z,8.13
2022-10-18T01:31:05.550Z,4.32
2022-10-18T01:33:43.018Z,9.23
2022-10-18T01:36:23.723Z,8.77
2022-10-18T01:38:54.508Z,8.30
2022-10-18T01:41:24.526Z,10.23
2022-10-18T01:44:01.814Z,3.78
2022-10-18T01:46:29.843Z,5.00
2022-10-18T01:48:57.146Z,4.00
2022-10-18T01:51:29.558Z,4.72
2022-10-18T01:53:57.338Z,3.22
2022-10-18T01:56:42.659Z,4.85
2022-10-18T01:59:36.206Z,2.65
2022-10-18T02:02:16.609Z,4.05
2022-10-18T02:05:02.602Z,2.80
2022-10-18T02:08:05.667Z,3.35
2022-10-18T02:10:55.785Z,2.90
2022-10-18T02:13:25.644Z,2.10
2022-10-18T02:15:58.571Z,2.33
2022-10-18T02:18:31.809Z,2.10
2022-10-18T02:21:00.792Z,3.22
2022-10-18T02:23:27.544Z,3.47
2022-10-18T02:25:54.679Z,3.10
2022-10-18T02:28:22.252Z,5.53
2022-10-18T02:31:13.950Z,4.97
2022-10-18T02:33:53.380Z,3.08
2022-10-18T02:36:28.412Z,2.70
2022-10-18T02:39:02.898Z,2.92
2022-10-18T02:41:31.129Z,2.60
2022-10-18T02:43:57.961Z,6.50
2022-10-18T02:46:24.618Z,4.22
2022-10-18T02:48:51.513Z,3.85
2022-10-18T02:51:18.186Z,3.45
2022-10-18T02:53:44.680Z,2.30
2022-10-18T02:56:12.008Z,1.70
2022-10-18T02:58:38.529Z,2.10
2022-10-18T03:01:05.210Z,2.05
2022-10-18T03:03:31.765Z,2.15
2022-10-18T03:05:58.439Z,2.55
2022-10-18T03:08:25.390Z,2.53
2022-10-18T03:10:51.988Z,3.05
2022-10-18T03:13:18.827Z,7.05
2022-10-18T03:15:46.349Z,8.52
2022-10-18T03:18:12.871Z,7.30
2022-10-18T03:20:39.982Z,5.85
2022-10-18T03:23:07.322Z,4.75
2022-10-18T03:25:34.565Z,2.05
2022-10-18T03:28:01.410Z,3.70
2022-10-18T03:30:28.120Z,4.78
2022-10-18T03:32:54.671Z,7.80
2022-10-18T03:35:21.548Z,10.00
2022-10-18T03:37:48.413Z,7.75
2022-10-18T03:40:15.069Z,3.90
2022-10-18T03:42:41.632Z,2.78
2022-10-18T03:45:08.802Z,2.30
2022-10-18T03:47:35.412Z,2.22
2022-10-18T03:50:01.978Z,1.48
2022-10-18T03:52:28.730Z,2.05
2022-10-18T03:54:55.403Z,1.40
2022-10-18T03:57:21.992Z,3.05
2022-10-18T03:59:48.893Z,1.13
2022-10-18T04:02:15.509Z,1.30
2022-10-18T04:04:42.095Z,1.20
2022-10-18T04:07:08.669Z,1.10
2022-10-18T04:09:35.310Z,0.80
2022-10-18T04:12:01.907Z,1.10
2022-10-18T04:14:28.483Z,1.25
2022-10-18T04:16:55.020Z,1.00
2022-10-18T04:19:21.591Z,3.75
2022-10-18T04:21:48.215Z,4.90
2022-10-18T04:24:17.031Z,3.55
2022-10-18T04:26:43.744Z,1.17
2022-10-18T04:29:10.371Z,1.50
2022-10-18T04:31:37.122Z,3.00
2022-10-18T04:34:04.524Z,1.40
2022-10-18T04:36:31.681Z,1.60
2022-10-18T04:38:58.284Z,1.40
2022-10-18T04:41:24.775Z,1.35
2022-10-18T04:43:51.389Z,1.85
2022-10-18T04:46:17.939Z,1.70
2022-10-18T04:48:44.553Z,1.75
2022-10-18T04:51:11.109Z,2.28
2022-10-18T04:53:37.693Z,1.95
2022-10-18T04:56:04.334Z,3.80
2022-10-18T04:58:30.868Z,1.45
2022-10-18T05:00:57.507Z,1.20
2022-10-18T05:03:25.278Z,1.10
2022-10-18T05:06:06.999Z,1.48
2022-10-18T05:08:35.556Z,1.58
2022-10-18T05:11:03.491Z,2.40
2022-10-18T05:13:30.637Z,2.58
2022-10-18T05:16:00.451Z,1.88
2022-10-18T05:18:27.360Z,2.00
2022-10-18T05:20:53.885Z,3.40
2022-10-18T05:23:20.437Z,3.92
2022-10-18T05:25:47.179Z,4.22
2022-10-18T05:28:38.342Z,2.72
2022-10-18T05:31:02.687Z,6.18
2022-10-18T05:33:29.426Z,7.18
2022-10-18T05:35:56.353Z,5.32
2022-10-18T05:38:23.447Z,5.00
2022-10-18T05:40:50.161Z,3.63
2022-10-18T05:43:17.868Z,6.82
2022-10-18T05:45:49.167Z,4.28
2022-10-18T05:48:16.081Z,8.32
2022-10-18T05:50:43.126Z,7.00
2022-10-18T05:53:12.557Z,7.05
2022-10-18T05:55:51.252Z,5.53
2022-10-18T05:58:17.858Z,7.85
2022-10-18T06:00:44.506Z,7.00
2022-10-18T06:03:11.007Z,5.03
2022-10-18T06:05:40.498Z,11.63
2022-10-18T06:08:10.224Z,5.90
2022-10-18T06:10:40.403Z,4.93
2022-10-18T06:13:06.924Z,7.97
2022-10-18T06:15:33.543Z,5.28
2022-10-18T06:18:00.137Z,3.75
2022-10-18T06:20:26.668Z,4.82
2022-10-18T06:22:53.768Z,2.13
2022-10-18T06:25:20.316Z,3.38
2022-10-18T06:27:46.916Z,3.80
2022-10-18T06:30:13.574Z,3.70
2022-10-18T06:32:40.097Z,6.03
2022-10-18T06:35:07.136Z,8.45
2022-10-18T06:37:35.785Z,6.22
2022-10-18T06:40:02.810Z,8.80
2022-10-18T06:42:29.346Z,9.52
2022-10-18T06:44:56.033Z,3.72
2022-10-18T06:47:22.725Z,4.38
2022-10-18T06:49:49.378Z,3.42
2022-10-18T06:52:20.781Z,5.95
2022-10-18T06:54:47.322Z,5.57
2022-10-18T06:57:13.822Z,2.85
2022-10-18T06:59:40.526Z,3.90
2022-10-18T07:02:07.467Z,5.70
2022-10-18T07:04:34.163Z,3.45
2022-10-18T07:07:00.684Z,3.90
2022-10-18T07:09:27.275Z,3.70
2022-10-18T07:11:54.128Z,3.85
2022-10-18T07:14:20.625Z,3.72
2022-10-18T07:16:47.204Z,4.07
2022-10-18T07:19:14.981Z,4.88
2022-10-18T07:21:41.642Z,4.95
2022-10-18T07:24:08.198Z,5.35
2022-10-18T07:26:35.315Z,6.15
2022-10-18T07:29:06.855Z,5.22
2022-10-18T07:31:34.260Z,6.53
2022-10-18T07:34:01.308Z,5.80
2022-10-18T07:36:27.874Z,5.78
2022-10-18T07:38:54.827Z,6.50
2022-10-18T07:41:22.132Z,6.25
2022-10-18T07:43:51.067Z,6.78
2022-10-18T07:46:19.070Z,6.45
2022-10-18T07:48:46.078Z,4.60
2022-10-18T07:51:13.578Z,6.55
2022-10-18T07:53:40.369Z,5.35
2022-10-18T07:56:11.663Z,5.15
2022-10-18T07:58:38.224Z,6.50
2022-10-18T08:01:06.564Z,5.13
2022-10-18T08:03:33.796Z,4.40
2022-10-18T08:06:00.363Z,4.32
2022-10-18T08:08:27.477Z,5.40
2022-10-18T08:10:54.659Z,6.22
2022-10-18T08:13:21.412Z,3.70
2022-10-18T08:15:47.977Z,3.88
2022-10-18T08:18:14.573Z,5.10
2022-10-18T08:20:45.616Z,4.90
2022-10-18T08:23:12.805Z,4.97
2022-10-18T08:25:39.444Z,5.22
2022-10-18T08:28:06.642Z,4.35
2022-10-18T08:30:34.698Z,3.83
2022-10-18T08:33:02.205Z,3.20
2022-10-18T08:35:28.751Z,3.50
2022-10-18T08:37:55.447Z,2.60
2022-10-18T08:40:22.035Z,3.67
2022-10-18T08:43:05.925Z,4.25
2022-10-18T08:45:42.419Z,4.32
2022-10-18T08:48:21.964Z,4.85
2022-10-18T08:50:49.963Z,4.53
2022-10-18T08:53:45.546Z,4.53
2022-10-18T08:56:16.246Z,3.78
2022-10-18T08:58:46.740Z,3.80
2022-10-18T09:01:27.451Z,4.00
2022-10-18T09:04:21.955Z,4.55
2022-10-18T09:06:51.159Z,3.70
2022-10-18T09:10:00.468Z,4.40
2022-10-18T09:12:59.657Z,4.00
2022-10-18T09:15:50.423Z,3.83
2022-10-18T09:18:47.501Z,4.45
2022-10-18T09:21:25.386Z,5.90
2022-10-18T09:24:05.853Z,5.88
2022-10-18T09:26:43.357Z,5.10
2022-10-18T09:29:29.508Z,5.70
2022-10-18T09:31:58.667Z,5.53
2022-10-18T09:34:55.261Z,5.28
2022-10-18T09:37:24.475Z,5.93
2022-10-18T09:39:55.414Z,5.10
2022-10-18T09:42:29.415Z,5.30
2022-10-18T09:45:01.467Z,5.45
2022-10-18T09:47:35.759Z,4.95
2022-10-18T09:50:15.058Z,4.80
2022-10-18T09:52:50.722Z,4.03
2022-10-18T09:55:30.955Z,4.03
2022-10-18T09:58:01.907Z,3.35
2022-10-18T10:00:33.299Z,3.83
2022-10-18T10:03:02.199Z,3.60
2022-10-18T10:05:28.842Z,4.03
2022-10-18T10:07:59.961Z,3.35
2022-10-18T10:10:30.045Z,3.90
2022-10-18T10:13:15.784Z,3.30
2022-10-18T10:16:01.471Z,3.72
2022-10-18T10:18:31.890Z,3.65
2022-10-18T10:21:01.534Z,3.65
2022-10-18T10:23:33.145Z,3.80
2022-10-18T10:26:21.499Z,3.45
2022-10-18T10:28:49.073Z,4.35
2022-10-18T10:31:24.530Z,3.47
2022-10-18T10:34:15.362Z,3.55
2022-10-18T10:36:53.488Z,3.25
2022-10-18T10:39:22.005Z,2.97
2022-10-18T10:41:54.090Z,2.70
2022-10-18T10:44:23.662Z,2.80
2022-10-18T10:46:52.127Z,2.60
2022-10-18T10:52:33.954Z,2.70
2022-10-18T10:55:23.548Z,2.08
2022-10-18T10:57:51.725Z,1.90
2022-10-18T11:00:38.359Z,2.00
2022-10-18T11:03:28.644Z,2.00
2022-10-18T11:05:58.054Z,1.80
2022-10-18T11:08:28.280Z,1.63
2022-10-18T11:11:22.865Z,1.60
2022-10-18T11:14:07.333Z,1.73
2022-10-18T11:17:12.989Z,1.27
2022-10-18T11:20:17.942Z,1.30
2022-10-18T11:22:56.470Z,1.25
2022-10-18T11:25:28.628Z,1.05
2022-10-18T11:28:23.958Z,1.25
2022-10-18T11:31:11.210Z,1.00
2022-10-18T11:34:14.821Z,1.05
2022-10-18T11:37:26.395Z,1.00
2022-10-18T11:40:04.846Z,5.82
2022-10-18T11:42:57.988Z,1.92
2022-10-18T11:48:12.354Z,1.17
2022-10-18T11:50:54.593Z,0.90
2022-10-18T11:53:23.955Z,1.00
2022-10-18T11:56:11.575Z,0.90
2022-10-18T11:58:42.494Z,0.70
2022-10-18T12:01:26.248Z,0.73
2022-10-18T12:03:59.316Z,0.65
2022-10-18T12:06:37.836Z,0.85
2022-10-18T12:09:14.625Z,0.70
2022-10-18T12:11:54.919Z,0.75
2022-10-18T12:14:59.258Z,0.80
2022-10-18T12:17:46.065Z,0.70
2022-10-18T12:20:20.854Z,0.70
2022-10-18T12:22:55.613Z,0.77
2022-10-18T12:25:22.493Z,0.90
2022-10-18T12:27:56.812Z,0.80
2022-10-18T12:30:28.244Z,0.90
2022-10-18T12:33:26.505Z,0.90
2022-10-18T12:35:59.847Z,1.05
2022-10-18T12:38:31.837Z,2.92
2022-10-18T12:40:59.342Z,1.10
2022-10-18T12:43:38.370Z,1.23
2022-10-18T12:46:13.061Z,1.20
2022-10-18T12:48:43.299Z,0.90
2022-10-18T12:51:23.761Z,1.00
2022-10-18T12:54:07.059Z,0.90
2022-10-18T12:56:41.857Z,0.80
2022-10-18T12:59:14.650Z,0.73
2022-10-18T13:01:50.366Z,0.90
2022-10-18T13:04:29.339Z,1.00
2022-10-18T13:07:04.761Z,0.90
2022-10-18T13:09:35.402Z,1.10
2022-10-18T13:12:10.931Z,1.20
2022-10-18T13:15:12.399Z,0.95
2022-10-18T13:17:56.282Z,0.90
2022-10-18T13:20:27.225Z,1.02
2022-10-18T13:23:12.998Z,1.30
2022-10-18T13:26:17.763Z,1.08
2022-10-18T13:29:11.049Z,1.27
2022-10-18T13:31:47.824Z,1.20
2022-10-18T13:34:23.728Z,1.00
2022-10-18T13:37:08.791Z,1.00
2022-10-18T13:39:36.452Z,0.90
2022-10-18T13:42:02.950Z,1.00
2022-10-18T13:44:31.871Z,1.05
2022-10-18T13:46:58.517Z,0.85
2022-10-18T13:49:30.970Z,1.10
2022-10-18T13:52:15.451Z,0.95
2022-10-18T13:54:48.125Z,1.20
2022-10-18T13:57:35.832Z,1.00
2022-10-18T14:00:44.839Z,0.93
2022-10-18T14:03:57.666Z,0.98
2022-10-18T14:06:41.143Z,1.00
2022-10-18T14:09:26.149Z,1.00
2022-10-18T14:12:20.390Z,1.13
2022-10-18T14:14:59.798Z,0.90
2022-10-18T14:20:20.836Z,1.30
2022-10-18T14:22:56.058Z,1.10
2022-10-18T14:25:27.930Z,1.00
2022-10-18T14:28:36.170Z,0.82
2022-10-18T14:31:19.479Z,1.00
2022-10-18T14:33:57.083Z,1.00
2022-10-18T14:36:27.134Z,1.08
2022-10-18T14:38:57.192Z,1.13
2022-10-18T14:41:32.763Z,1.30
2022-10-18T14:44:17.093Z,1.27
2022-10-18T14:46:50.671Z,1.20
2022-10-18T14:49:19.391Z,1.20
2022-10-18T14:51:50.155Z,1.10
2022-10-18T14:54:21.770Z,1.30
2022-10-18T14:56:49.722Z,1.40
2022-10-18T14:59:20.524Z,1.38
2022-10-18T15:02:00.112Z,1.10
2022-10-18T15:04:34.435Z,1.50
2022-10-18T15:07:06.233Z,1.30
2022-10-18T15:09:35.420Z,1.40
2022-10-18T15:12:07.102Z,1.30
2022-10-18T15:14:34.819Z,1.50
2022-10-18T15:17:30.577Z,1.50
2022-10-18T15:20:06.182Z,1.50
2022-10-18T15:22:34.042Z,1.40
2022-10-18T15:25:09.690Z,1.60
2022-10-18T15:27:40.056Z,1.50
2022-10-18T15:30:08.723Z,1.50
2022-10-18T15:32:35.582Z,1.40
2022-10-18T15:35:16.106Z,1.45
2022-10-18T15:37:46.202Z,1.20
2022-10-18T15:40:18.527Z,1.15
2022-10-18T15:42:45.580Z,1.00
2022-10-18T15:48:18.284Z,1.00
2022-10-18T15:50:47.662Z,1.30
2022-10-18T15:53:20.747Z,0.90
2022-10-18T15:55:50.647Z,1.10
2022-10-18T15:58:26.792Z,1.20
2022-10-18T16:00:58.198Z,1.20
2022-10-18T16:03:25.437Z,1.10
2022-10-18T16:06:07.217Z,1.00
2022-10-18T16:08:40.559Z,1.13
2022-10-18T16:11:24.750Z,1.30
2022-10-18T16:13:55.250Z,1.30
2022-10-18T16:16:27.236Z,1.40
2022-10-18T16:18:54.514Z,1.73
2022-10-18T16:21:30.185Z,2.00
2022-10-18T16:23:57.959Z,2.42
2022-10-18T16:26:25.846Z,2.45
2022-10-18T16:28:53.454Z,2.60
2022-10-18T16:31:26.055Z,2.70
2022-10-18T16:33:54.431Z,2.75
2022-10-18T16:36:24.301Z,2.88
2022-10-18T16:38:51.567Z,3.03
2022-10-18T16:41:18.555Z,2.72
2022-10-18T16:43:47.316Z,2.63
2022-10-18T16:46:23.243Z,3.22
2022-10-18T16:48:50.985Z,2.90
2022-10-18T16:51:17.903Z,3.70
2022-10-18T16:53:45.083Z,4.10
2022-10-18T16:56:17.895Z,3.33
2022-10-18T16:58:46.204Z,2.95
2022-10-18T17:01:14.778Z,2.70
2022-10-18T17:03:41.559Z,3.17
2022-10-18T17:06:15.619Z,4.07
2022-10-18T17:08:42.336Z,4.13
2022-10-18T17:11:10.810Z,3.05
2022-10-18T17:13:37.623Z,3.22
2022-10-18T17:16:05.390Z,3.83
2022-10-18T17:18:32.442Z,3.70
2022-10-18T17:21:03.071Z,3.20
2022-10-18T17:23:30.392Z,3.35
2022-10-18T17:26:05.503Z,4.13
2022-10-18T17:28:42.000Z,4.00
2022-10-18T17:31:08.605Z,3.92
2022-10-18T17:33:35.253Z,3.90
2022-10-18T17:36:02.099Z,4.22
2022-10-18T17:38:28.701Z,4.25
2022-10-18T17:40:57.174Z,4.80
2022-10-18T17:43:23.912Z,4.05
2022-10-18T17:45:54.861Z,3.67
2022-10-18T17:48:21.915Z,4.60
2022-10-18T17:50:48.481Z,4.20
2022-10-18T17:53:16.156Z,4.95
2022-10-18T17:55:42.662Z,4.57
2022-10-18T17:58:09.278Z,4.47
2022-10-18T18:00:35.944Z,4.72
2022-10-18T18:03:02.504Z,4.78
2022-10-18T18:05:34.201Z,4.40
2022-10-18T18:08:03.925Z,4.07
2022-10-18T18:10:33.480Z,4.22
2022-10-18T18:13:00.786Z,4.32
2022-10-18T18:15:27.465Z,4.40
2022-10-18T18:17:57.830Z,4.88
2022-10-18T18:20:26.185Z,5.35
2022-10-18T18:22:53.035Z,5.68
2022-10-18T18:25:19.706Z,5.13
2022-10-18T18:27:46.297Z,4.80
2022-10-18T18:30:12.918Z,5.55
2022-10-18T18:32:39.695Z,5.15
2022-10-18T18:35:06.627Z,5.78
2022-10-18T18:37:33.241Z,5.68
2022-10-18T18:39:59.971Z,5.95
2022-10-18T18:42:26.502Z,5.70
2022-10-18T18:44:53.030Z,6.10
2022-10-18T18:47:21.967Z,6.55
2022-10-18T18:49:49.074Z,6.70
2022-10-18T18:52:15.603Z,6.55
2022-10-18T18:54:42.217Z,6.20
2022-10-18T18:57:09.968Z,7.10
2022-10-18T18:59:36.514Z,6.70
2022-10-18T19:02:03.102Z,7.68
2022-10-18T19:04:29.798Z,6.75
2022-10-18T19:06:56.504Z,6.72
2022-10-18T19:09:23.920Z,7.47
2022-10-18T19:11:53.284Z,7.78
2022-10-18T19:16:53.797Z,7.82
2022-10-18T19:19:23.067Z,7.45
2022-10-18T19:21:52.269Z,7.53
2022-10-18T19:24:20.315Z,7.10
2022-10-18T19:26:52.370Z,7.53
2022-10-18T19:29:30.439Z,7.30
2022-10-18T19:31:59.569Z,8.27
2022-10-18T19:34:28.218Z,8.70
2022-10-18T19:36:55.418Z,8.77
2022-10-18T19:39:27.743Z,8.80
2022-10-18T19:41:56.310Z,8.95
2022-10-18T19:44:26.058Z,8.23
2022-10-18T19:46:53.166Z,9.00
2022-10-18T19:49:19.726Z,9.73
2022-10-18T19:51:46.773Z,9.43
2022-10-18T19:54:14.995Z,10.40
2022-10-18T19:56:42.348Z,10.30
2022-10-18T19:59:09.937Z,11.20
2022-10-18T20:01:36.857Z,11.60
2022-10-18T20:04:07.382Z,11.60
2022-10-18T20:06:34.835Z,27.08
2022-10-18T20:09:01.816Z,25.08
2022-10-18T20:11:29.873Z,22.40
2022-10-18T20:13:57.474Z,19.75
2022-10-18T20:16:28.705Z,19.98
2022-10-18T20:19:00.649Z,22.65
2022-10-18T20:21:29.665Z,20.92
2022-10-18T20:23:56.780Z,17.38
2022-10-18T20:26:25.479Z,17.83
2022-10-18T20:28:56.623Z,17.00
2022-10-18T20:31:25.457Z,18.92
2022-10-18T20:33:57.611Z,18.67
2022-10-18T20:36:24.493Z,19.30
2022-10-18T20:38:51.042Z,19.48
2022-10-18T20:41:21.479Z,20.15
2022-10-18T20:44:03.462Z,19.63
2022-10-18T20:46:31.732Z,20.33
2022-10-18T20:48:58.276Z,21.02
2022-10-18T20:51:24.957Z,20.40
2022-10-18T20:53:52.299Z,19.40
2022-10-18T20:56:27.204Z,21.25
2022-10-18T20:58:55.902Z,22.13
2022-10-18T21:01:25.805Z,21.10
2022-10-18T21:03:54.108Z,21.83
2022-10-18T21:06:30.726Z,22.48
2022-10-18T21:09:02.362Z,25.40
2022-10-18T21:11:30.606Z,25.67
2022-10-18T21:14:00.121Z,26.73
2022-10-18T21:16:27.136Z,25.42
2022-10-18T21:18:53.760Z,28.98
2022-10-18T21:21:25.766Z,26.52
2022-10-18T21:23:52.722Z,26.38
2022-10-18T21:26:24.777Z,26.23
2022-10-18T21:28:53.514Z,25.45
2022-10-18T21:31:34.912Z,27.48
2022-10-18T21:34:04.529Z,26.45
2022-10-18T21:36:33.114Z,26.80
2022-10-18T21:38:59.849Z,26.88
2022-10-18T21:41:26.514Z,27.90
2022-10-18T21:43:55.062Z,27.13
2022-10-18T21:46:23.502Z,26.38
2022-10-18T21:48:52.014Z,32.88
2022-10-18T21:51:21.443Z,33.38
2022-10-18T21:53:50.483Z,32.58
2022-10-18T21:56:35.718Z,31.17
2022-10-18T21:59:03.375Z,44.47
2022-10-18T22:01:35.587Z,38.38
2022-10-18T22:04:05.542Z,44.10
2022-10-18T22:09:07.253Z,41.58
2022-10-18T22:11:37.455Z,40.72
2022-10-18T22:14:04.175Z,37.80
2022-10-18T22:16:30.958Z,38.42
2022-10-18T22:18:59.813Z,45.28
2022-10-18T22:21:27.510Z,41.63
2022-10-18T22:23:57.163Z,48.40
2022-10-18T22:26:30.279Z,42.97
2022-10-18T22:29:02.489Z,43.85
2022-10-18T22:31:32.538Z,42.72
2022-10-18T22:34:01.687Z,39.63
2022-10-18T22:36:28.311Z,34.20
2022-10-18T22:38:54.935Z,41.47
2022-10-18T22:41:21.803Z,40.28
2022-10-18T22:43:50.609Z,36.72
2022-10-18T22:46:17.900Z,39.33
2022-10-18T22:48:45.067Z,42.33
2022-10-18T22:51:12.335Z,35.25
2022-10-18T22:53:39.963Z,38.88
2022-10-18T22:56:09.161Z,34.60
2022-10-18T22:58:35.702Z,38.20
2022-10-18T23:01:06.576Z,38.83
2022-10-18T23:03:33.554Z,35.92
2022-10-18T23:06:00.502Z,35.22
2022-10-18T23:08:27.820Z,34.72
2022-10-18T23:10:58.326Z,35.95
2022-10-18T23:13:26.426Z,35.80
2022-10-18T23:15:53.274Z,35.60
2022-10-18T23:18:19.801Z,33.92
2022-10-18T23:20:46.331Z,34.72
2022-10-18T23:23:13.491Z,41.60
2022-10-18T23:25:40.262Z,32.15
2022-10-18T23:28:07.055Z,35.35
2022-10-18T23:30:33.960Z,35.47
2022-10-18T23:33:00.913Z,33.72
2022-10-18T23:35:28.841Z,45.28
2022-10-18T23:37:55.376Z,38.95
2022-10-18T23:40:21.893Z,37.28
2022-10-18T23:42:48.446Z,41.67
2022-10-18T23:45:15.071Z,36.53
2022-10-18T23:47:41.667Z,39.00
2022-10-18T23:50:08.673Z,34.13
2022-10-18T23:52:35.437Z,36.75
2022-10-18T23:55:01.952Z,35.72
2022-10-18T23:57:28.692Z,34.92
2022-10-18T23:59:55.377Z,35.95
